| time (UTC) | temp C | wind direction | speed KPH | gust KPH | rain 1hr cm | rain 24hr cm | rain mn cm | humidity % | barometer mb |
| 20260906213044 | 27 | 238 | 12.9 | 25.7 | 0.00 | 0.00 | 0.00 | 37 | 1005.7 |
| 20260906211545 | 27 | 209 | 17.7 | 35.4 | 0.00 | 0.00 | 0.00 | 37 | 1005.7 |
| 20260906210041 | 27 | 248 | 9.7 | 27.4 | 0.00 | 0.00 | 0.00 | 40 | 1006.0 |
| 20260906204539 | 26 | 192 | 11.3 | 25.7 | 0.00 | 0.00 | 0.00 | 41 | 1006.3 |
| 20260906203041 | 27 | 190 | 17.7 | 33.8 | 0.00 | 0.00 | 0.00 | 40 | 1006.4 |
| 20260906201535 | 28 | 252 | 14.5 | 24.1 | 0.00 | 0.00 | 0.00 | 38 | 1006.4 |
| 20260906200033 | 27 | 227 | 16.1 | 25.7 | 0.00 | 0.00 | 0.00 | 38 | 1006.5 |
| 20260906194530 | 27 | 246 | 8.0 | 22.5 | 0.00 | 0.00 | 0.00 | 39 | 1006.6 |
| 20260906193029 | 27 | 211 | 11.3 | 22.5 | 0.00 | 0.00 | 0.00 | 40 | 1006.7 |
| 20260906191526 | 27 | 207 | 11.3 | 22.5 | 0.00 | 0.00 | 0.00 | 37 | 1007.0 |
| 20260906190022 | 26 | 278 | 11.3 | 19.3 | 0.00 | 0.00 | 0.00 | 39 | 1007.3 |
| 20260906184521 | 26 | 184 | 11.3 | 20.9 | 0.00 | 0.00 | 0.00 | 38 | 1007.8 |
| 20260906183038 | 26 | 196 | 8.0 | 17.7 | 0.00 | 0.00 | 0.00 | 40 | 1008.0 |
| 20260906181517 | 25 | 231 | 11.3 | 17.7 | 0.00 | 0.00 | 0.00 | 41 | 1008.3 |
| 20260906180018 | 25 | 193 | 6.4 | 14.5 | 0.00 | 0.00 | 0.00 | 43 | 1008.6 |
| 20260906174510 | 25 | 218 | 12.9 | 17.7 | 0.00 | 0.00 | 0.00 | 41 | 1008.8 |
| 20260906173011 | 25 | 167 | 4.8 | 19.3 | 0.00 | 0.00 | 0.00 | 41 | 1008.9 |
| 20260906171517 | 25 | 187 | 8.0 | 16.1 | 0.00 | 0.00 | 0.00 | 40 | 1009.1 |
| 20260906170009 | 25 | 191 | 6.4 | 17.7 | 0.00 | 0.00 | 0.00 | 41 | 1009.2 |
| 20260906164504 | 24 | 238 | 9.7 | 14.5 | 0.00 | 0.00 | 0.00 | 42 | 1009.2 |
| 20260906163005 | 23 | 158 | 6.4 | 14.5 | 0.00 | 0.00 | 0.00 | 43 | 1009.2 |
| 20260906161603 | 23 | 127 | 4.8 | 12.9 | 0.00 | 0.00 | 0.00 | 44 | 1009.2 |
| 20260906160057 | 23 | 196 | 6.4 | 12.9 | 0.00 | 0.00 | 0.00 | 45 | 1009.4 |
| 20260906154554 | 22 | 146 | 6.4 | 12.9 | 0.00 | 0.00 | 0.00 | 45 | 1009.1 |
| 20260906153050 | 21 | 145 | 4.8 | 12.9 | 0.00 | 0.00 | 0.00 | 48 | 1009.0 |
| 20260906151548 | 21 | 79 | 6.4 | 12.9 | 0.00 | 0.00 | 0.00 | 48 | 1009.1 |
| 20260906150050 | 20 | 102 | 4.8 | 12.9 | 0.00 | 0.00 | 0.00 | 51 | 1009.0 |
| 20260906144545 | 20 | 78 | 3.2 | 12.9 | 0.00 | 0.00 | 0.00 | 52 | 1009.0 |
| 20260906143037 | 19 | 59 | 1.6 | 12.9 | 0.00 | 0.00 | 0.00 | 55 | 1008.9 |
| 20260906141536 | 18 | 100 | 3.2 | 9.7 | 0.00 | 0.00 | 0.00 | 58 | 1008.8 |
| 20260906140036 | 17 | 64 | 1.6 | 9.7 | 0.00 | 0.00 | 0.00 | 60 | 1008.7 |
| 20260906134527 | 16 | 53 | 1.6 | 6.4 | 0.00 | 0.00 | 0.00 | 62 | 1008.7 |
| 20260906133025 | 15 | 51 | 1.6 | 6.4 | 0.00 | 0.00 | 0.00 | 63 | 1008.8 |
| 20260906131524 | 15 | 42 | 1.6 | 6.4 | 0.00 | 0.00 | 0.00 | 63 | 1008.6 |
| 20260906130028 | 15 | 48 | 1.6 | 4.8 | 0.00 | 0.00 | 0.00 | 64 | 1008.5 |
| 20260906124523 | 15 | 35 | 0.0 | 4.8 | 0.00 | 0.00 | 0.00 | 63 | 1008.6 |
| 20260906123031 | 15 | 33 | 0.0 | 6.4 | 0.00 | 0.00 | 0.00 | 62 | 1008.7 |
| 20260906121534 | 15 | 38 | 1.6 | 8.0 | 0.00 | 0.00 | 0.00 | 62 | 1008.6 |
| 20260906120021 | 14 | 38 | 1.6 | 4.8 | 0.00 | 0.00 | 0.00 | 63 | 1008.6 |
| 20260906114528 | 14 | 44 | 1.6 | 3.2 | 0.00 | 0.00 | 0.00 | 63 | 1008.6 |
| 20260906113039 | 14 | 35 | 0.0 | 3.2 | 0.00 | 0.00 | 0.00 | 64 | 1008.5 |
| 20260906111522 | 15 | 35 | 0.0 | 3.2 | 0.00 | 0.00 | 0.00 | 62 | 1008.3 |
| 20260906110020 | 15 | 35 | 0.0 | 3.2 | 0.00 | 0.00 | 0.00 | 63 | 1008.1 |
| 20260906104527 | 15 | 35 | 1.6 | 4.8 | 0.00 | 0.00 | 0.00 | 62 | 1008.2 |
| 20260906103016 | 15 | 35 | 0.0 | 3.2 | 0.00 | 0.00 | 0.00 | 65 | 1008.1 |
| 20260906101515 | 14 | 35 | 0.0 | 6.4 | 0.00 | 0.00 | 0.00 | 67 | 1008.2 |
| 20260906100018 | 13 | 36 | 0.0 | 4.8 | 0.00 | 0.00 | 0.00 | 70 | 1008.3 |
| 20260906094512 | 14 | 25 | 0.0 | 3.2 | 0.00 | 0.00 | 0.00 | 72 | 1008.3 |
| 20260906093009 | 15 | 25 | 0.0 | 3.2 | 0.00 | 0.00 | 0.00 | 72 | 1008.3 |
| 20260906091505 | 16 | 24 | 0.0 | 3.2 | 0.00 | 0.00 | 0.00 | 70 | 1008.1 |
| 20260906090003 | 16 | 25 | 0.0 | 0.0 | 0.00 | 0.00 | 0.00 | 69 | 1007.9 |
| 20260906084502 | 16 | 25 | 0.0 | 3.2 | 0.00 | 0.00 | 0.00 | 70 | 1007.9 |
| 20260906083001 | 16 | 25 | 0.0 | 4.8 | 0.00 | 0.00 | 0.00 | 72 | 1007.9 |
| 20260906081614 | 16 | 34 | 0.0 | 6.4 | 0.00 | 0.00 | 0.00 | 73 | 1008.0 |
| 20260906080104 | 16 | 24 | 1.6 | 3.2 | 0.00 | 0.00 | 0.00 | 75 | 1008.0 |
| 20260906074612 | 16 | 28 | 0.0 | 1.6 | 0.00 | 0.00 | 0.00 | 75 | 1008.0 |
| 20260906073100 | 16 | 28 | 1.6 | 4.8 | 0.00 | 0.00 | 0.00 | 75 | 1008.0 |
| 20260906071555 | 16 | 28 | 0.0 | 3.2 | 0.00 | 0.00 | 0.00 | 73 | 1008.2 |
| 20260906070052 | 16 | 28 | 0.0 | 3.2 | 0.00 | 0.00 | 0.00 | 72 | 1008.4 |
| 20260906064550 | 17 | 254 | 0.0 | 6.4 | 0.00 | 0.00 | 0.00 | 71 | 1008.4 |
| 20260906063049 | 17 | 27 | 0.0 | 6.4 | 0.00 | 0.00 | 0.00 | 70 | 1008.4 |
| 20260906061555 | 17 | 263 | 1.6 | 4.8 | 0.00 | 0.00 | 0.00 | 70 | 1008.4 |
| 20260906060044 | 17 | 266 | 6.4 | 9.7 | 0.00 | 0.00 | 0.00 | 71 | 1008.0 |
| 20260906054544 | 17 | 257 | 4.8 | 8.0 | 0.00 | 0.00 | 0.00 | 70 | 1008.1 |
| 20260906053044 | 17 | 238 | 4.8 | 11.3 | 0.00 | 0.00 | 0.00 | 71 | 1008.1 |
| 20260906051552 | 16 | 259 | 3.2 | 8.0 | 0.00 | 0.00 | 0.00 | 72 | 1008.0 |
| 20260906050047 | 17 | 294 | 3.2 | 4.8 | 0.00 | 0.00 | 0.00 | 72 | 1008.1 |
| 20260906044542 | 17 | 294 | 3.2 | 4.8 | 0.00 | 0.00 | 0.00 | 71 | 1008.1 |
| 20260906043042 | 18 | 289 | 1.6 | 4.8 | 0.00 | 0.00 | 0.00 | 70 | 1008.1 |
| 20260906041543 | 18 | 246 | 4.8 | 9.7 | 0.00 | 0.00 | 0.00 | 70 | 1008.1 |
| 20260906040045 | 18 | 267 | 1.6 | 6.4 | 0.00 | 0.00 | 0.00 | 70 | 1008.1 |
| 20260906034541 | 18 | 257 | 3.2 | 8.0 | 0.00 | 0.00 | 0.00 | 70 | 1008.2 |
| 20260906033046 | 18 | 244 | 4.8 | 9.7 | 0.00 | 0.00 | 0.00 | 69 | 1007.9 |
| 20260906031553 | 19 | 242 | 3.2 | 6.4 | 0.00 | 0.00 | 0.00 | 68 | 1007.8 |
| 20260906030039 | 20 | 234 | 3.2 | 9.7 | 0.00 | 0.00 | 0.00 | 66 | 1007.6 |
| 20260906024539 | 20 | 223 | 3.2 | 12.9 | 0.00 | 0.00 | 0.00 | 65 | 1007.5 |
| 20260906023039 | 20 | 217 | 8.0 | 19.3 | 0.00 | 0.00 | 0.00 | 64 | 1007.6 |
| 20260906021538 | 20 | 215 | 14.5 | 30.6 | 0.00 | 0.00 | 0.00 | 64 | 1007.8 |
| 20260906020037 | 20 | 200 | 11.3 | 19.3 | 0.00 | 0.00 | 0.00 | 48 | 1007.6 |
| 20260906014537 | 22 | 180 | 0.0 | 0.0 | 0.00 | 0.00 | 0.00 | 39 | 1007.1 |
| 20260906013036 | 22 | 182 | 0.0 | 0.0 | 0.00 | 0.00 | 0.00 | 38 | 1007.1 |
| 20260906011540 | 23 | 182 | 0.0 | 1.6 | 0.00 | 0.00 | 0.00 | 35 | 1007.0 |
| 20260906010035 | 24 | 44 | 0.0 | 3.2 | 0.00 | 0.00 | 0.00 | 34 | 1007.2 |
| 20260906004534 | 25 | 215 | 0.0 | 0.0 | 0.00 | 0.00 | 0.00 | 34 | 1007.4 |
| 20260906003034 | 25 | 215 | 0.0 | 0.0 | 0.00 | 0.00 | 0.00 | 32 | 1007.2 |
| 20260906001533 | 26 | 215 | 0.0 | 0.0 | 0.00 | 0.00 | 0.00 | 32 | 1007.1 |
| 20260906000033 | 26 | 215 | 0.0 | 3.2 | 0.00 | 0.00 | 0.00 | 31 | 1007.1 |
| 20260905234532 | 27 | 215 | 3.2 | 4.8 | 0.00 | 0.00 | 0.00 | 29 | 1006.9 |
| 20260905233035 | 27 | 257 | 4.8 | 9.7 | 0.00 | 0.00 | 0.00 | 27 | 1006.7 |
| 20260905231532 | 27 | 111 | 1.6 | 6.4 | 0.00 | 0.00 | 0.00 | 27 | 1006.6 |
| 20260905230031 | 26 | 192 | 4.8 | 9.7 | 0.00 | 0.00 | 0.00 | 29 | 1006.5 |
| 20260905224545 | 26 | 275 | 1.6 | 8.0 | 0.00 | 0.00 | 0.00 | 28 | 1006.7 |
| 20260905223030 | 26 | 281 | 4.8 | 12.9 | 0.00 | 0.00 | 0.00 | 28 | 1007.0 |
| 20260905221529 | 26 | 88 | 4.8 | 11.3 | 0.00 | 0.00 | 0.00 | 28 | 1006.8 |
| 20260905220033 | 26 | 94 | 3.2 | 9.7 | 0.00 | 0.00 | 0.00 | 28 | 1006.9 |
| 20260905214528 | 26 | 16 | 1.6 | 6.4 | 0.00 | 0.00 | 0.00 | 30 | 1007.0 |